createdAt,value
2023-01-15T00:01:37.219Z,9.93
2023-01-15T00:03:41.519Z,8.45
2023-01-15T00:05:44.598Z,2.00
2023-01-15T00:07:47.529Z,11.18
2023-01-15T00:09:50.846Z,6.55
2023-01-15T00:11:53.679Z,7.53
2023-01-15T00:13:57.071Z,9.05
2023-01-15T00:16:04.111Z,7.97
2023-01-15T00:18:07.213Z,8.35
2023-01-15T00:20:13.120Z,10.32
2023-01-15T00:22:16.489Z,5.15
2023-01-15T00:24:38.037Z,4.35
2023-01-15T00:26:59.694Z,7.22
2023-01-15T00:29:02.638Z,5.05
2023-01-15T00:31:05.836Z,11.02
2023-01-15T00:33:08.799Z,12.40
2023-01-15T00:35:15.524Z,4.15
2023-01-15T00:37:18.422Z,8.75
2023-01-15T00:39:21.460Z,9.30
2023-01-15T00:41:24.358Z,12.48
2023-01-15T00:43:27.283Z,7.90
2023-01-15T00:45:30.252Z,6.07
2023-01-15T00:47:33.284Z,8.32
2023-01-15T00:49:36.118Z,8.93
2023-01-15T00:51:40.570Z,7.97
2023-01-15T00:53:43.517Z,6.00
2023-01-15T00:55:46.449Z,1.00
2023-01-15T00:57:49.262Z,7.03
2023-01-15T00:59:52.443Z,7.30
2023-01-15T01:01:55.395Z,8.13
2023-01-15T01:03:58.502Z,8.98
2023-01-15T01:06:02.882Z,6.95
2023-01-15T01:08:07.358Z,1.85
2023-01-15T01:10:10.899Z,7.43
2023-01-15T01:12:13.839Z,7.97
2023-01-15T01:14:16.720Z,8.07
2023-01-15T01:16:25.923Z,7.07
2023-01-15T01:18:29.323Z,6.68
2023-01-15T01:20:33.124Z,7.68
2023-01-15T01:22:36.216Z,5.75
2023-01-15T01:24:40.818Z,5.00
2023-01-15T01:26:47.123Z,8.32
2023-01-15T01:28:50.798Z,10.88
2023-01-15T01:30:53.613Z,6.47
2023-01-15T01:32:56.575Z,10.00
2023-01-15T01:34:59.680Z,5.15
2023-01-15T01:37:02.680Z,3.92
2023-01-15T01:39:08.157Z,10.90
2023-01-15T01:43:21.484Z,7.30
2023-01-15T01:45:26.748Z,10.07
2023-01-15T01:47:30.501Z,8.52
2023-01-15T01:49:34.278Z,7.20
2023-01-15T01:51:40.746Z,7.80
2023-01-15T01:53:44.199Z,6.35
2023-01-15T01:55:47.319Z,7.57
2023-01-15T01:57:52.942Z,8.20
2023-01-15T02:01:58.574Z,6.15
2023-01-15T02:04:01.577Z,8.82
2023-01-15T02:06:07.282Z,6.32
2023-01-15T02:10:16.747Z,7.13
2023-01-15T02:12:25.110Z,8.07
2023-01-15T02:14:32.878Z,9.35
2023-01-15T02:16:38.591Z,5.35
2023-01-15T02:18:45.881Z,5.90
2023-01-15T02:20:51.780Z,3.65
2023-01-15T02:23:07.377Z,3.38
2023-01-15T02:25:14.964Z,6.20
2023-01-15T02:27:24.346Z,7.75
2023-01-15T02:29:31.876Z,7.97
2023-01-15T02:31:37.218Z,5.68
2023-01-15T02:33:42.756Z,7.57
2023-01-15T02:37:52.037Z,6.80
2023-01-15T02:40:00.157Z,3.03
2023-01-15T02:42:05.269Z,5.70
2023-01-15T02:44:16.931Z,7.60
2023-01-15T02:46:22.798Z,4.35
2023-01-15T02:48:28.011Z,5.55
2023-01-15T02:50:35.401Z,5.38
2023-01-15T02:52:42.415Z,1.75
2023-01-15T02:54:48.357Z,6.47
2023-01-15T02:56:53.597Z,2.22
2023-01-15T02:58:59.595Z,7.35
2023-01-15T03:01:07.806Z,6.50
2023-01-15T03:03:14.156Z,2.47
2023-01-15T03:05:19.486Z,3.42
2023-01-15T03:07:27.120Z,5.72
2023-01-15T03:09:31.239Z,6.47
2023-01-15T03:11:38.397Z,5.05
2023-01-15T03:13:47.140Z,7.53
2023-01-15T03:16:14.198Z,5.28
2023-01-15T03:18:20.773Z,6.65
2023-01-15T03:20:25.836Z,10.93
2023-01-15T03:22:31.325Z,5.88
2023-01-15T03:26:39.379Z,3.97
2023-01-15T03:28:42.795Z,6.70
2023-01-15T03:30:46.924Z,5.78
2023-01-15T03:32:50.017Z,3.58
2023-01-15T03:34:56.454Z,7.85
2023-01-15T03:37:00.203Z,10.35
2023-01-15T03:39:05.159Z,3.63
2023-01-15T03:41:26.170Z,4.47
2023-01-15T03:43:42.637Z,3.42
2023-01-15T03:45:48.302Z,7.07
2023-01-15T03:47:57.400Z,7.32
2023-01-15T03:50:05.862Z,6.57
2023-01-15T03:52:20.842Z,3.67
2023-01-15T03:54:34.277Z,3.22
2023-01-15T03:56:42.196Z,8.48
2023-01-15T03:58:48.017Z,4.70
2023-01-15T04:00:56.311Z,3.72
2023-01-15T04:03:01.754Z,4.85
2023-01-15T04:05:09.303Z,5.93
2023-01-15T04:07:12.841Z,2.70
2023-01-15T04:09:16.636Z,7.82
2023-01-15T04:11:24.724Z,5.43
2023-01-15T04:13:31.679Z,2.50
2023-01-15T04:15:35.338Z,6.10
2023-01-15T04:17:38.723Z,4.65
2023-01-15T04:19:41.677Z,5.60
2023-01-15T04:21:46.957Z,3.65
2023-01-15T04:23:49.931Z,8.13
2023-01-15T04:25:52.979Z,6.80
2023-01-15T04:27:56.000Z,5.50
2023-01-15T04:29:59.045Z,6.57
2023-01-15T04:32:02.157Z,6.22
2023-01-15T04:34:05.152Z,1.23
2023-01-15T04:36:09.221Z,3.70
2023-01-15T04:38:13.627Z,6.82
2023-01-15T04:40:35.598Z,4.88
2023-01-15T04:42:57.180Z,3.03
2023-01-15T04:45:00.328Z,4.45
2023-01-15T04:47:03.323Z,4.93
2023-01-15T04:49:07.048Z,8.50
2023-01-15T04:51:09.999Z,4.07
2023-01-15T04:53:14.382Z,6.30
2023-01-15T04:55:17.458Z,7.30
2023-01-15T04:57:20.317Z,4.80
2023-01-15T04:59:25.575Z,5.68
2023-01-15T05:01:28.615Z,6.32
2023-01-15T05:03:32.137Z,1.10
2023-01-15T05:05:35.199Z,12.80
2023-01-15T05:07:38.149Z,8.57
2023-01-15T05:09:42.958Z,4.75
2023-01-15T05:11:45.797Z,3.27
2023-01-15T05:13:48.816Z,4.38
2023-01-15T05:15:51.848Z,6.25
2023-01-15T05:17:54.764Z,3.38
2023-01-15T05:19:57.898Z,5.45
2023-01-15T05:22:00.762Z,3.42
2023-01-15T05:24:05.657Z,6.55
2023-01-15T05:26:10.212Z,5.85
2023-01-15T05:28:13.170Z,6.03
2023-01-15T05:30:16.177Z,7.22
2023-01-15T05:32:19.073Z,9.05
2023-01-15T05:34:21.987Z,10.25
2023-01-15T05:36:26.679Z,6.10
2023-01-15T05:38:29.547Z,5.78
2023-01-15T05:40:32.561Z,6.88
2023-01-15T05:42:37.047Z,6.60
2023-01-15T05:44:40.040Z,3.17
2023-01-15T05:46:44.037Z,8.38
2023-01-15T05:48:46.998Z,4.50
2023-01-15T05:50:49.962Z,5.93
2023-01-15T05:52:52.778Z,10.27
2023-01-15T05:54:55.717Z,9.38
2023-01-15T05:56:58.743Z,8.90
2023-01-15T05:59:03.161Z,4.18
2023-01-15T06:01:10.797Z,7.38
2023-01-15T06:03:13.617Z,7.05
2023-01-15T06:05:20.403Z,1.10
2023-01-15T06:07:23.278Z,7.55
2023-01-15T06:09:28.414Z,5.85
2023-01-15T06:11:31.372Z,9.50
2023-01-15T06:13:34.692Z,7.95
2023-01-15T06:15:39.192Z,6.55
2023-01-15T06:17:42.237Z,8.87
2023-01-15T06:19:45.200Z,5.93
2023-01-15T06:21:49.278Z,6.07
2023-01-15T06:23:54.613Z,8.40
2023-01-15T06:26:00.909Z,5.60
2023-01-15T06:28:04.229Z,7.25
2023-01-15T06:30:08.737Z,2.80
2023-01-15T06:32:13.127Z,9.30
2023-01-15T06:34:16.159Z,7.45
2023-01-15T06:36:23.448Z,7.97
2023-01-15T06:38:26.488Z,7.55
2023-01-15T06:40:29.600Z,8.93
2023-01-15T06:42:55.758Z,8.27
2023-01-15T06:45:17.400Z,6.88
2023-01-15T06:47:23.009Z,9.35
2023-01-15T06:49:26.358Z,7.03
2023-01-15T06:51:31.182Z,4.88
2023-01-15T06:53:34.197Z,9.35
2023-01-15T06:55:37.133Z,6.60
2023-01-15T06:57:40.669Z,6.60
2023-01-15T06:59:43.644Z,6.32
2023-01-15T07:01:46.905Z,7.65
2023-01-15T07:03:51.351Z,6.05
2023-01-15T07:05:54.147Z,8.93
2023-01-15T07:07:58.729Z,7.97
2023-01-15T07:10:01.679Z,5.10
2023-01-15T07:12:04.836Z,5.05
2023-01-15T07:14:07.693Z,6.68
2023-01-15T07:16:27.343Z,7.00
2023-01-15T07:18:31.757Z,5.15
2023-01-15T07:20:36.088Z,5.63
2023-01-15T07:22:39.078Z,4.82
2023-01-15T07:24:41.948Z,3.90
2023-01-15T07:26:46.045Z,6.32
2023-01-15T07:28:49.251Z,2.58
2023-01-15T07:30:52.317Z,8.80
2023-01-15T07:32:57.131Z,2.25
2023-01-15T07:35:00.021Z,10.15
2023-01-15T07:37:04.928Z,14.60
2023-01-15T07:39:09.707Z,8.32
2023-01-15T07:41:31.408Z,8.93
2023-01-15T07:43:53.130Z,10.05
2023-01-15T07:46:14.918Z,6.35
2023-01-15T07:48:36.397Z,9.00
2023-01-15T07:50:39.728Z,19.65
2023-01-15T07:52:45.362Z,12.50
2023-01-15T07:54:50.083Z,9.63
2023-01-15T07:56:53.850Z,4.43
2023-01-15T07:58:56.947Z,25.23
2023-01-15T08:00:59.931Z,22.27
2023-01-15T08:03:03.978Z,17.40
2023-01-15T08:05:07.919Z,22.50
2023-01-15T08:07:11.398Z,6.68
2023-01-15T08:09:16.277Z,6.53
2023-01-15T08:11:38.038Z,10.15
2023-01-15T08:13:59.719Z,8.55
2023-01-15T08:16:02.924Z,12.18
2023-01-15T08:18:06.263Z,14.52
2023-01-15T08:20:11.718Z,11.18
2023-01-15T08:22:14.535Z,10.00
2023-01-15T08:24:19.029Z,11.05
2023-01-15T08:26:21.923Z,11.52
2023-01-15T08:28:24.915Z,8.73
2023-01-15T08:30:28.064Z,17.42
2023-01-15T08:32:31.017Z,6.65
2023-01-15T08:34:33.970Z,34.28
2023-01-15T08:36:37.254Z,9.82
2023-01-15T08:38:40.088Z,10.23
2023-01-15T08:40:59.703Z,6.30
2023-01-15T08:43:02.855Z,15.35
2023-01-15T08:45:06.578Z,9.85
2023-01-15T08:47:09.517Z,4.15
2023-01-15T08:49:12.439Z,5.07
2023-01-15T08:51:15.527Z,13.40
2023-01-15T08:53:19.619Z,7.40
2023-01-15T08:55:22.559Z,11.13
2023-01-15T08:57:26.919Z,7.22
2023-01-15T08:59:30.079Z,7.05
2023-01-15T09:01:33.119Z,9.75
2023-01-15T09:03:36.763Z,8.35
2023-01-15T09:05:39.756Z,9.13
2023-01-15T09:07:42.679Z,11.48
2023-01-15T09:09:45.587Z,6.50
2023-01-15T09:11:48.654Z,11.30
2023-01-15T09:13:54.370Z,29.13
2023-01-15T09:15:59.847Z,28.23
2023-01-15T09:18:02.893Z,10.05
2023-01-15T09:20:07.760Z,10.38
2023-01-15T09:22:10.737Z,9.98
2023-01-15T09:24:13.918Z,18.73
2023-01-15T09:26:29.528Z,15.88
2023-01-15T09:28:33.246Z,15.60
2023-01-15T09:30:37.755Z,3.92
2023-01-15T09:32:40.774Z,8.88
2023-01-15T09:34:43.999Z,8.65
2023-01-15T09:36:46.992Z,5.90
2023-01-15T09:38:50.228Z,11.75
2023-01-15T09:40:56.521Z,8.73
2023-01-15T09:43:04.717Z,5.60
2023-01-15T09:45:19.203Z,6.47
2023-01-15T09:47:27.209Z,7.72
2023-01-15T09:49:39.227Z,9.50
2023-01-15T09:51:49.070Z,7.47
2023-01-15T09:54:09.455Z,9.20
2023-01-15T09:56:20.476Z,6.53
2023-01-15T09:58:31.078Z,8.60
2023-01-15T10:00:36.563Z,3.35
2023-01-15T10:04:46.719Z,10.90
2023-01-15T10:06:55.587Z,9.65
2023-01-15T10:09:03.379Z,10.75
2023-01-15T10:11:12.668Z,15.98
2023-01-15T10:13:22.447Z,8.18
2023-01-15T10:15:30.496Z,12.77
2023-01-15T10:17:41.759Z,13.60
2023-01-15T10:19:46.196Z,7.68
2023-01-15T10:21:54.724Z,10.18
2023-01-15T10:24:06.215Z,12.18
2023-01-15T10:26:28.858Z,28.35
2023-01-15T10:28:33.415Z,26.90
2023-01-15T10:30:41.173Z,13.80
2023-01-15T10:33:01.625Z,25.20
2023-01-15T10:35:20.088Z,12.48
2023-01-15T10:37:27.971Z,35.88
2023-01-15T10:39:37.657Z,8.43
2023-01-15T10:41:50.549Z,10.15
2023-01-15T10:43:56.387Z,8.18
2023-01-15T10:46:01.278Z,22.13
2023-01-15T10:48:09.869Z,9.82
2023-01-15T10:50:19.744Z,6.35
2023-01-15T10:52:27.788Z,8.05
2023-01-15T10:54:33.564Z,14.07
2023-01-15T10:56:41.201Z,6.80
2023-01-15T10:58:47.617Z,7.65
2023-01-15T11:00:54.537Z,10.60
2023-01-15T11:03:03.027Z,12.35
2023-01-15T11:05:06.937Z,8.82
2023-01-15T11:07:14.031Z,14.18
2023-01-15T11:09:21.603Z,20.75
2023-01-15T11:11:45.922Z,14.70
2023-01-15T11:14:13.977Z,38.65
2023-01-15T11:16:44.331Z,22.55
2023-01-15T11:19:05.998Z,17.83
2023-01-15T11:21:13.046Z,31.65
2023-01-15T11:23:19.449Z,31.83
2023-01-15T11:25:30.104Z,8.60
2023-01-15T11:27:34.016Z,10.23
2023-01-15T11:29:37.941Z,10.98
2023-01-15T11:31:41.806Z,11.05
2023-01-15T11:33:46.207Z,16.83
2023-01-15T11:35:52.508Z,9.52
2023-01-15T11:38:11.673Z,1.30
2023-01-15T11:40:20.707Z,8.10
2023-01-15T11:42:42.150Z,13.40
2023-01-15T11:45:10.798Z,12.27
2023-01-15T11:47:33.524Z,11.23
2023-01-15T11:49:57.443Z,10.90
2023-01-15T11:52:04.149Z,12.63
2023-01-15T11:54:09.878Z,13.07
2023-01-15T11:56:16.278Z,15.20
2023-01-15T11:58:19.279Z,61.60
2023-01-15T12:00:24.587Z,10.40
2023-01-15T12:02:36.769Z,9.10
2023-01-15T12:04:45.292Z,38.05
2023-01-15T12:06:48.965Z,8.70
2023-01-15T12:08:53.138Z,52.38
2023-01-15T12:11:25.143Z,19.80
2023-01-15T12:13:36.725Z,10.68
2023-01-15T12:15:43.273Z,24.67
2023-01-15T12:18:16.038Z,20.52
2023-01-15T12:20:25.043Z,17.80
2023-01-15T12:22:37.073Z,9.77
2023-01-15T12:24:59.398Z,172.38
2023-01-15T12:27:11.679Z,64.28
2023-01-15T12:29:21.361Z,166.35
2023-01-15T12:31:28.484Z,566.38
2023-01-15T12:33:42.420Z,49.63
2023-01-15T12:35:49.722Z,13.82
2023-01-15T12:37:55.699Z,9.30
2023-01-15T12:40:01.535Z,9.65
2023-01-15T12:42:24.819Z,8.48
2023-01-15T12:44:53.199Z,13.60
2023-01-15T12:46:56.604Z,10.00
2023-01-15T12:49:05.380Z,8.40
2023-01-15T12:51:11.679Z,20.30
2023-01-15T12:53:17.728Z,12.18
2023-01-15T12:55:22.879Z,11.10
2023-01-15T12:57:32.441Z,15.15
2023-01-15T12:59:42.045Z,11.85
2023-01-15T13:01:51.425Z,7.93
2023-01-15T13:04:07.768Z,14.75
2023-01-15T13:08:16.605Z,37.30
2023-01-15T13:10:21.779Z,14.07
2023-01-15T13:12:25.357Z,15.95
2023-01-15T13:14:28.174Z,46.92
2023-01-15T13:16:44.188Z,27.48
2023-01-15T13:19:08.758Z,35.42
2023-01-15T13:21:14.163Z,27.92
2023-01-15T13:23:28.239Z,29.23
2023-01-15T13:25:40.542Z,28.42
2023-01-15T13:27:57.240Z,16.95
2023-01-15T13:30:09.225Z,29.00
2023-01-15T13:32:16.318Z,24.92
2023-01-15T13:34:25.852Z,24.42
2023-01-15T13:36:32.621Z,11.00
2023-01-15T13:38:41.049Z,23.83
2023-01-15T13:40:50.679Z,19.50
2023-01-15T13:42:54.159Z,11.90
2023-01-15T13:44:57.136Z,10.63
2023-01-15T13:47:02.319Z,13.32
2023-01-15T13:49:06.879Z,13.55
2023-01-15T13:51:23.821Z,28.38
2023-01-15T13:53:29.195Z,23.88
2023-01-15T13:55:33.870Z,15.10
2023-01-15T13:57:38.364Z,26.37
2023-01-15T13:59:44.098Z,23.50
2023-01-15T14:01:47.858Z,16.90
2023-01-15T14:04:17.782Z,17.10
2023-01-15T14:06:20.708Z,15.27
2023-01-15T14:08:27.389Z,13.18
2023-01-15T14:10:39.730Z,9.35
2023-01-15T14:12:51.816Z,16.85
2023-01-15T14:15:09.448Z,9.77
2023-01-15T14:17:33.009Z,10.43
2023-01-15T14:20:01.008Z,10.13
2023-01-15T14:22:28.523Z,13.57
2023-01-15T14:24:48.501Z,16.63
2023-01-15T14:26:55.977Z,12.80
2023-01-15T14:29:06.404Z,10.68
2023-01-15T14:31:44.803Z,3.92
2023-01-15T14:33:57.141Z,8.93
2023-01-15T14:36:10.455Z,10.77
2023-01-15T14:38:17.215Z,10.77
2023-01-15T14:40:22.441Z,9.07
2023-01-15T14:42:47.139Z,11.25
2023-01-15T14:44:57.887Z,11.30
2023-01-15T14:47:03.309Z,14.80
2023-01-15T14:49:06.173Z,10.95
2023-01-15T14:51:12.408Z,10.90
2023-01-15T14:53:26.189Z,16.35
2023-01-15T14:55:29.778Z,10.13
2023-01-15T14:57:33.698Z,8.27
2023-01-15T14:59:42.120Z,9.35
2023-01-15T15:01:46.233Z,9.02
2023-01-15T15:03:54.648Z,10.60
2023-01-15T15:05:57.725Z,9.82
2023-01-15T15:08:03.618Z,10.23
2023-01-15T15:10:14.085Z,13.00
2023-01-15T15:12:26.788Z,18.15
2023-01-15T15:14:31.139Z,33.28
2023-01-15T15:16:41.063Z,46.25
2023-01-15T15:18:47.964Z,32.15
2023-01-15T15:20:54.238Z,23.23
2023-01-15T15:23:04.887Z,25.20
2023-01-15T15:25:11.359Z,17.33
2023-01-15T15:27:17.737Z,17.08
2023-01-15T15:29:22.768Z,16.40
2023-01-15T15:31:26.720Z,20.65
2023-01-15T15:33:35.538Z,28.05
2023-01-15T15:35:40.759Z,24.73
2023-01-15T15:37:45.237Z,23.13
2023-01-15T15:39:53.973Z,24.33
2023-01-15T15:42:16.978Z,24.63
2023-01-15T15:44:45.568Z,23.63
2023-01-15T15:47:09.439Z,18.75
2023-01-15T15:49:13.131Z,32.10
2023-01-15T15:51:30.303Z,15.32
2023-01-15T15:53:33.237Z,17.75
2023-01-15T15:55:40.276Z,19.08
2023-01-15T15:57:46.177Z,20.73
2023-01-15T15:59:51.522Z,28.15
2023-01-15T16:01:54.769Z,24.60
2023-01-15T16:03:57.679Z,25.00
2023-01-15T16:06:01.727Z,28.75
2023-01-15T16:08:18.127Z,40.15
2023-01-15T16:10:26.193Z,25.42
2023-01-15T16:12:32.358Z,26.00
2023-01-15T16:14:37.445Z,44.20
2023-01-15T16:16:40.462Z,37.92
2023-01-15T16:18:44.964Z,94.15
2023-01-15T16:20:47.860Z,90.43
2023-01-15T16:22:54.848Z,31.83
2023-01-15T16:24:58.760Z,38.53
2023-01-15T16:27:05.964Z,48.53
2023-01-15T16:29:18.464Z,39.25
2023-01-15T16:31:23.100Z,24.17
2023-01-15T16:33:26.416Z,16.10
2023-01-15T16:35:30.536Z,11.85
2023-01-15T16:37:35.701Z,32.70
2023-01-15T16:39:41.000Z,25.50
2023-01-15T16:41:44.119Z,16.95
2023-01-15T16:43:54.957Z,28.80
2023-01-15T16:46:05.340Z,18.92
2023-01-15T16:48:25.319Z,25.80
2023-01-15T16:50:30.738Z,22.50
2023-01-15T16:52:50.622Z,28.13
2023-01-15T16:54:53.577Z,24.17
2023-01-15T16:56:57.717Z,32.30
2023-01-15T16:59:00.779Z,42.55
2023-01-15T17:01:25.883Z,11.88
2023-01-15T17:03:30.627Z,15.48
2023-01-15T17:05:33.498Z,36.10
2023-01-15T17:07:38.938Z,36.28
2023-01-15T17:09:45.328Z,22.52
2023-01-15T17:11:50.386Z,68.30
2023-01-15T17:14:08.453Z,25.98
2023-01-15T17:16:18.783Z,53.33
2023-01-15T17:18:26.678Z,17.02
2023-01-15T17:20:34.293Z,16.00
2023-01-15T17:22:37.690Z,10.25
2023-01-15T17:24:47.708Z,26.58
2023-01-15T17:26:50.726Z,40.28
2023-01-15T17:28:53.882Z,20.00
2023-01-15T17:31:01.386Z,33.08
2023-01-15T17:33:07.448Z,23.45
2023-01-15T17:35:21.119Z,23.88
2023-01-15T17:37:24.230Z,19.27
2023-01-15T17:39:27.118Z,14.68
2023-01-15T17:41:30.145Z,9.82
2023-01-15T17:43:33.078Z,36.78
2023-01-15T17:45:35.958Z,11.85
2023-01-15T17:47:38.757Z,29.92
2023-01-15T17:49:43.236Z,9.90
2023-01-15T17:51:46.029Z,10.25
2023-01-15T17:53:49.038Z,11.30
2023-01-15T17:56:15.262Z,10.77
2023-01-15T17:58:36.966Z,9.30
2023-01-15T18:00:58.779Z,11.35
2023-01-15T18:03:20.357Z,13.80
2023-01-15T18:05:28.927Z,10.93
2023-01-15T18:07:34.142Z,26.25
2023-01-15T18:09:37.559Z,22.35
2023-01-15T18:11:40.458Z,30.65
2023-01-15T18:13:43.459Z,30.25
2023-01-15T18:15:46.500Z,35.13
2023-01-15T18:17:49.479Z,26.58
2023-01-15T18:19:53.858Z,3.75
2023-01-15T18:21:59.406Z,13.98
2023-01-15T18:24:02.939Z,19.50
2023-01-15T18:26:06.869Z,25.95
2023-01-15T18:28:09.878Z,20.45
2023-01-15T18:30:14.300Z,28.33
2023-01-15T18:32:17.170Z,50.47
2023-01-15T18:34:20.039Z,19.35
2023-01-15T18:36:22.905Z,13.38
2023-01-15T18:38:27.506Z,19.52
2023-01-15T18:40:31.281Z,12.85
2023-01-15T18:42:53.040Z,18.60
2023-01-15T18:45:14.759Z,11.25
2023-01-15T18:47:18.106Z,123.32
2023-01-15T18:49:21.038Z,28.75
2023-01-15T18:51:25.560Z,87.07
2023-01-15T18:53:29.957Z,29.98
2023-01-15T18:55:32.787Z,30.40
2023-01-15T18:57:35.839Z,10.35
2023-01-15T18:59:38.975Z,32.28
2023-01-15T19:01:42.579Z,58.63
2023-01-15T19:03:45.577Z,63.63
2023-01-15T19:05:48.602Z,9.07
2023-01-15T19:07:51.558Z,41.78
2023-01-15T19:09:55.968Z,51.75
2023-01-15T19:11:59.200Z,44.60
2023-01-15T19:14:21.078Z,65.80
2023-01-15T19:16:42.868Z,64.50
2023-01-15T19:18:53.755Z,38.38
2023-01-15T19:20:56.641Z,47.10
2023-01-15T19:22:59.701Z,21.40
2023-01-15T19:25:04.677Z,55.35
2023-01-15T19:27:07.999Z,89.05
2023-01-15T19:29:11.552Z,18.27
2023-01-15T19:31:34.853Z,53.95
2023-01-15T19:33:39.717Z,37.60
2023-01-15T19:35:42.510Z,49.28
2023-01-15T19:37:46.099Z,27.77
2023-01-15T19:39:49.007Z,37.42
2023-01-15T19:42:12.002Z,42.05
2023-01-15T19:44:33.917Z,33.75
2023-01-15T19:47:12.248Z,122.68
2023-01-15T19:49:37.801Z,261.23
2023-01-15T19:52:00.635Z,236.80
2023-01-15T19:54:05.508Z,315.88
2023-01-15T19:56:09.397Z,732.17
2023-01-15T19:58:15.037Z,353.65
2023-01-15T20:02:22.289Z,49.92
2023-01-15T20:04:25.193Z,10.07
2023-01-15T20:06:28.068Z,15.13
2023-01-15T20:08:32.780Z,55.88
2023-01-15T20:10:38.709Z,196.93
2023-01-15T20:13:00.558Z,62.53
2023-01-15T20:15:06.038Z,100.32
2023-01-15T20:17:09.079Z,25.33
2023-01-15T20:19:11.908Z,14.95
2023-01-15T20:21:16.050Z,24.08
2023-01-15T20:23:18.958Z,103.70
2023-01-15T20:25:21.816Z,105.60
2023-01-15T20:27:24.913Z,76.43
2023-01-15T20:29:27.797Z,81.32
2023-01-15T20:31:34.230Z,80.88
2023-01-15T20:33:37.156Z,93.82
2023-01-15T20:35:39.914Z,68.05
2023-01-15T20:37:42.762Z,34.53
2023-01-15T20:39:45.559Z,48.40
2023-01-15T20:42:07.237Z,113.78
2023-01-15T20:44:28.958Z,27.80
2023-01-15T20:46:33.406Z,52.45
2023-01-15T20:48:54.678Z,65.43
2023-01-15T20:51:03.352Z,46.42
2023-01-15T20:53:08.197Z,44.95
2023-01-15T20:55:10.896Z,24.88
2023-01-15T20:57:13.706Z,95.70
2023-01-15T20:59:16.638Z,57.85
2023-01-15T21:01:19.499Z,67.95
2023-01-15T21:03:23.998Z,55.78
2023-01-15T21:05:27.279Z,75.55
2023-01-15T21:07:30.197Z,77.03
2023-01-15T21:09:33.037Z,84.70
2023-01-15T21:11:36.117Z,46.38
2023-01-15T21:13:45.160Z,53.05
2023-01-15T21:15:54.360Z,116.53
2023-01-15T21:17:57.232Z,25.30
2023-01-15T21:20:01.775Z,58.13
2023-01-15T21:22:04.639Z,46.65
2023-01-15T21:24:07.839Z,71.78
2023-01-15T21:26:10.778Z,44.45
2023-01-15T21:28:13.657Z,28.98
2023-01-15T21:30:16.579Z,30.05
2023-01-15T21:32:19.559Z,49.08
2023-01-15T21:34:22.578Z,26.33
2023-01-15T21:36:26.958Z,44.58
2023-01-15T21:38:29.989Z,39.10
2023-01-15T21:40:32.881Z,25.08
2023-01-15T21:42:54.557Z,24.58
2023-01-15T21:44:57.400Z,35.30
2023-01-15T21:47:02.024Z,28.85
2023-01-15T21:49:06.132Z,33.85
2023-01-15T21:51:09.279Z,28.65
2023-01-15T21:53:13.651Z,28.27
2023-01-15T21:55:16.838Z,12.40
2023-01-15T21:57:19.828Z,13.45
2023-01-15T21:59:22.709Z,23.08
2023-01-15T22:01:26.378Z,17.13
2023-01-15T22:03:29.282Z,16.70
2023-01-15T22:05:32.199Z,16.27
2023-01-15T22:07:35.463Z,16.58
2023-01-15T22:09:39.821Z,16.40
2023-01-15T22:11:45.828Z,18.63
2023-01-15T22:13:50.719Z,13.10
2023-01-15T22:15:58.775Z,14.27
2023-01-15T22:18:04.325Z,14.02
2023-01-15T22:20:10.303Z,12.60
2023-01-15T22:22:13.300Z,9.63
2023-01-15T22:24:16.559Z,11.02
2023-01-15T22:26:21.952Z,8.63
2023-01-15T22:28:24.860Z,11.57
2023-01-15T22:30:27.797Z,9.20
2023-01-15T22:32:30.799Z,10.98
2023-01-15T22:34:34.043Z,9.48
2023-01-15T22:36:37.159Z,11.32
2023-01-15T22:38:40.158Z,10.43
2023-01-15T22:40:43.000Z,8.13
2023-01-15T22:42:47.518Z,9.35
2023-01-15T22:44:50.519Z,10.73
2023-01-15T22:46:54.478Z,10.30
2023-01-15T22:48:57.604Z,10.30
2023-01-15T22:51:00.559Z,11.60
2023-01-15T22:53:03.499Z,9.48
2023-01-15T22:55:07.879Z,8.82
2023-01-15T22:57:10.928Z,9.57
2023-01-15T22:59:16.201Z,8.48
2023-01-15T23:01:19.296Z,9.32
2023-01-15T23:03:22.233Z,9.73
2023-01-15T23:05:25.358Z,10.02
2023-01-15T23:07:28.319Z,7.10
2023-01-15T23:09:31.577Z,6.85
2023-01-15T23:11:34.679Z,7.43
2023-01-15T23:13:37.882Z,10.63
2023-01-15T23:15:42.316Z,10.20
2023-01-15T23:17:45.403Z,6.82
2023-01-15T23:19:48.238Z,8.27
2023-01-15T23:21:51.198Z,8.23
2023-01-15T23:23:54.724Z,11.68
2023-01-15T23:25:57.641Z,10.57
2023-01-15T23:28:00.613Z,8.90
2023-01-15T23:30:05.164Z,9.95
2023-01-15T23:32:09.598Z,9.27
2023-01-15T23:34:12.842Z,8.75
2023-01-15T23:36:16.199Z,11.95
2023-01-15T23:38:19.518Z,8.95
2023-01-15T23:40:22.479Z,8.65
2023-01-15T23:42:44.706Z,11.73
2023-01-15T23:45:06.399Z,9.80
2023-01-15T23:47:10.841Z,8.43
2023-01-15T23:49:14.678Z,8.90
2023-01-15T23:51:17.557Z,7.90
2023-01-15T23:53:20.481Z,10.88
2023-01-15T23:55:23.469Z,8.95
2023-01-15T23:57:26.348Z,12.63
2023-01-15T23:59:29.462Z,10.32
